North Hannibal, New York
Current Conditions -  °F | °C
As of 12:54 PM on Tuesday 21 Oct 2014 (Local Time) from KFZY Reporting Station
Overcast Overcast  
Wind Chill: 52°   Ceiling: 2200
Heat Index: 52°   Visibility: 10mi
Dew Point: 46°   Wind: 6mph
Humidity: 80%   Direction: NA
Pressure: 29.87"   Gusts: NA
Location:  43.4571°N, 76.4163°W
Report Text: KFZY 211654Z AUTO VRB05KT 10SM FEW010 OVC022 11/08 A2987 RMK AO2 RAE1555 SLP116 P0000 T01110078
Loading
Personal Weather Stations






























Interactive Weather Map
Tropical Storm Tracking
New forecast layout! Learn more

10-Day Weather Forecast

Advertisements
Track Severe Weather on mobile